createdAt,value
2019-05-23T00:01:20.258Z,13.54
2019-05-23T00:03:53.013Z,13.51
2019-05-23T00:06:26.682Z,13.45
2019-05-23T00:08:55.916Z,13.45
2019-05-23T00:11:40.171Z,13.45
2019-05-23T00:14:25.162Z,13.43
2019-05-23T00:16:57.268Z,13.44
2019-05-23T00:19:26.482Z,13.39
2019-05-23T00:21:56.904Z,13.41
2019-05-23T00:24:26.990Z,13.38
2019-05-23T00:26:56.959Z,13.38
2019-05-23T00:29:25.984Z,13.35
2019-05-23T00:31:56.410Z,13.32
2019-05-23T00:34:25.926Z,13.27
2019-05-23T00:36:55.109Z,13.26
2019-05-23T00:39:24.674Z,13.27
2019-05-23T00:41:54.957Z,13.03
2019-05-23T00:44:23.861Z,13.10
2019-05-23T00:46:54.096Z,13.11
2019-05-23T00:49:22.808Z,13.09
2019-05-23T00:51:51.533Z,13.10
2019-05-23T00:54:20.345Z,13.14
2019-05-23T00:56:50.437Z,13.17
2019-05-23T00:59:27.129Z,13.15
2019-05-23T01:01:49.783Z,13.13
2019-05-23T01:04:19.494Z,13.14
2019-05-23T01:06:48.524Z,13.13
2019-05-23T01:09:17.069Z,13.12
2019-05-23T01:11:46.756Z,13.09
2019-05-23T01:14:15.992Z,13.08
2019-05-23T01:16:45.575Z,13.13
2019-05-23T01:19:14.414Z,13.14
2019-05-23T01:21:56.505Z,13.23
2019-05-23T01:24:26.875Z,13.12
2019-05-23T01:26:56.830Z,13.09
2019-05-23T01:29:37.156Z,13.09
2019-05-23T01:32:15.585Z,13.09
2019-05-23T01:34:45.898Z,13.10
2019-05-23T01:37:15.957Z,13.04
2019-05-23T01:39:44.653Z,13.07
2019-05-23T01:42:13.367Z,13.06
2019-05-23T01:44:42.910Z,13.01
2019-05-23T01:47:12.169Z,12.98
2019-05-23T01:49:40.923Z,12.96
2019-05-23T01:52:11.452Z,12.96
2019-05-23T01:54:40.470Z,12.95
2019-05-23T01:57:11.120Z,12.89
2019-05-23T01:59:40.792Z,12.89
2019-05-23T02:02:11.335Z,12.90
2019-05-23T02:04:40.778Z,12.86
2019-05-23T02:07:10.234Z,12.79
2019-05-23T02:09:38.774Z,12.80
2019-05-23T02:12:08.756Z,12.77
2019-05-23T02:14:38.585Z,12.76
2019-05-23T02:17:07.519Z,12.76
2019-05-23T02:19:36.486Z,12.78
2019-05-23T02:22:05.501Z,12.73
2019-05-23T02:24:34.277Z,12.76
2019-05-23T02:27:03.159Z,12.73
2019-05-23T02:29:32.880Z,12.66
2019-05-23T02:32:02.157Z,12.63
2019-05-23T02:34:30.665Z,12.58
2019-05-23T02:37:00.774Z,12.59
2019-05-23T02:39:33.707Z,12.58
2019-05-23T02:42:13.254Z,12.56
2019-05-23T02:44:41.828Z,12.57
2019-05-23T02:47:28.773Z,12.53
2019-05-23T02:50:00.678Z,12.49
2019-05-23T02:52:48.344Z,12.51
2019-05-23T02:55:32.046Z,12.47
2019-05-23T02:58:03.460Z,12.51
2019-05-23T03:00:54.741Z,12.48
2019-05-23T03:03:28.091Z,12.47
2019-05-23T03:05:58.413Z,12.47
2019-05-23T03:08:27.102Z,12.50
2019-05-23T03:10:58.765Z,12.50
2019-05-23T03:13:29.670Z,12.48
2019-05-23T03:15:58.925Z,12.43
2019-05-23T03:18:34.941Z,12.35
2019-05-23T03:21:06.220Z,12.09
2019-05-23T03:23:35.713Z,12.13
2019-05-23T03:26:30.339Z,12.10
2019-05-23T03:28:59.269Z,12.09
2019-05-23T03:31:32.353Z,12.10
2019-05-23T03:34:00.438Z,12.12
2019-05-23T03:36:29.321Z,12.12
2019-05-23T03:38:58.493Z,12.14
2019-05-23T03:41:27.615Z,12.08
2019-05-23T03:43:57.098Z,12.01
2019-05-23T03:46:27.200Z,11.95
2019-05-23T03:48:56.132Z,11.97
2019-05-23T03:51:25.258Z,11.90
2019-05-23T03:53:55.073Z,11.89
2019-05-23T03:56:25.095Z,11.87
2019-05-23T03:58:56.178Z,11.87
2019-05-23T04:01:46.127Z,11.87
2019-05-23T04:03:58.657Z,11.90
2019-05-23T04:06:27.095Z,11.88
2019-05-23T04:08:56.532Z,11.87
2019-05-23T04:11:25.189Z,11.81
2019-05-23T04:13:54.102Z,11.77
2019-05-23T04:16:22.867Z,11.74
2019-05-23T04:18:51.800Z,11.67
2019-05-23T04:21:24.193Z,11.57
2019-05-23T04:23:52.833Z,11.53
2019-05-23T04:26:23.221Z,11.50
2019-05-23T04:28:52.513Z,11.49
2019-05-23T04:31:21.063Z,11.53
2019-05-23T04:33:49.787Z,11.52
2019-05-23T04:36:18.601Z,11.44
2019-05-23T04:38:47.343Z,11.46
2019-05-23T04:41:16.185Z,11.42
2019-05-23T04:43:45.079Z,11.43
2019-05-23T04:46:13.715Z,11.46
2019-05-23T04:48:42.904Z,11.49
2019-05-23T04:51:11.932Z,11.50
2019-05-23T04:53:40.746Z,11.58
2019-05-23T04:56:10.390Z,11.47
2019-05-23T04:58:38.932Z,11.52
2019-05-23T05:01:07.540Z,11.60
2019-05-23T05:03:36.180Z,11.66
2019-05-23T05:06:04.717Z,11.76
2019-05-23T05:08:33.093Z,11.81
2019-05-23T05:11:01.590Z,11.89
2019-05-23T05:13:30.784Z,11.96
2019-05-23T05:15:59.438Z,11.97
2019-05-23T05:18:29.663Z,12.02
2019-05-23T05:20:58.205Z,12.03
2019-05-23T05:23:26.662Z,12.12
2019-05-23T05:25:55.199Z,12.20
2019-05-23T05:28:23.732Z,12.24
2019-05-23T05:30:52.740Z,12.29
2019-05-23T05:33:21.227Z,12.35
2019-05-23T05:35:49.938Z,12.42
2019-05-23T05:38:19.701Z,12.43
2019-05-23T05:40:48.042Z,12.51
2019-05-23T05:43:17.191Z,12.59
2019-05-23T05:45:45.641Z,12.67
2019-05-23T05:48:14.459Z,12.70
2019-05-23T05:50:42.861Z,12.76
2019-05-23T05:53:11.415Z,12.82
2019-05-23T05:55:39.947Z,12.80
2019-05-23T05:58:08.497Z,12.82
2019-05-23T06:00:47.607Z,12.84
2019-05-23T06:03:16.377Z,12.84
2019-05-23T06:05:52.642Z,12.95
2019-05-23T06:08:23.029Z,12.98
2019-05-23T06:10:51.723Z,13.05
2019-05-23T06:13:20.219Z,13.11
2019-05-23T06:15:49.240Z,13.18
2019-05-23T06:18:17.686Z,13.20
2019-05-23T06:20:47.820Z,13.25
2019-05-23T06:23:17.729Z,13.23
2019-05-23T06:25:46.325Z,13.28
2019-05-23T06:28:15.431Z,13.37
2019-05-23T06:30:43.947Z,13.57
2019-05-23T06:33:22.674Z,13.81
2019-05-23T06:35:43.848Z,14.03
2019-05-23T06:38:12.638Z,14.32
2019-05-23T06:40:42.144Z,14.59
2019-05-23T06:43:10.940Z,14.72
2019-05-23T06:45:42.140Z,14.71
2019-05-23T06:48:12.028Z,15.19
2019-05-23T06:50:40.666Z,15.52
2019-05-23T06:53:09.539Z,15.83
2019-05-23T06:55:37.943Z,16.22
2019-05-23T06:58:06.643Z,16.59
2019-05-23T07:00:35.619Z,16.82
2019-05-23T07:03:04.516Z,17.30
2019-05-23T07:05:36.914Z,17.05
2019-05-23T07:08:06.913Z,17.40
2019-05-23T07:10:35.562Z,17.59
2019-05-23T07:13:04.532Z,17.82
2019-05-23T07:15:33.111Z,17.98
2019-05-23T07:18:02.586Z,18.21
2019-05-23T07:20:31.065Z,18.72
2019-05-23T07:22:59.739Z,18.18
2019-05-23T07:25:28.350Z,18.79
2019-05-23T07:27:56.979Z,19.01
2019-05-23T07:30:26.362Z,19.12
2019-05-23T07:32:55.774Z,19.10
2019-05-23T07:35:24.675Z,19.42
2019-05-23T07:37:53.224Z,18.89
2019-05-23T07:40:23.274Z,19.12
2019-05-23T07:42:52.023Z,19.03
2019-05-23T07:45:22.175Z,18.70
2019-05-23T07:47:50.960Z,18.73
2019-05-23T07:50:19.599Z,18.93
2019-05-23T07:52:48.236Z,18.30
2019-05-23T07:55:24.335Z,18.01
2019-05-23T07:57:54.412Z,16.81
2019-05-23T08:00:25.044Z,16.98
2019-05-23T08:02:53.671Z,17.36
2019-05-23T08:05:23.420Z,17.82
2019-05-23T08:07:52.469Z,18.44
2019-05-23T08:10:33.014Z,18.22
2019-05-23T08:12:51.342Z,18.82
2019-05-23T08:15:20.766Z,19.44
2019-05-23T08:17:49.286Z,19.50
2019-05-23T08:20:18.309Z,19.09
2019-05-23T08:22:47.225Z,19.21
2019-05-23T08:25:16.088Z,18.90
2019-05-23T08:27:44.575Z,19.10
2019-05-23T08:30:13.380Z,19.88
2019-05-23T08:32:41.840Z,20.64
2019-05-23T08:35:15.654Z,21.45
2019-05-23T08:37:41.427Z,22.01
2019-05-23T08:40:10.730Z,22.64
2019-05-23T08:42:39.627Z,22.78
2019-05-23T08:45:09.347Z,23.29
2019-05-23T08:47:38.104Z,21.80
2019-05-23T08:50:09.464Z,20.47
2019-05-23T08:52:37.937Z,20.97
2019-05-23T08:55:12.518Z,21.41
2019-05-23T08:57:41.713Z,21.92
2019-05-23T09:00:11.019Z,21.84
2019-05-23T09:02:40.433Z,20.83
2019-05-23T09:05:10.129Z,21.33
2019-05-23T09:07:38.601Z,20.53
2019-05-23T09:10:08.265Z,20.20
2019-05-23T09:12:37.101Z,19.95
2019-05-23T09:15:09.804Z,20.03
2019-05-23T09:17:51.345Z,20.79
2019-05-23T09:20:09.406Z,19.99
2019-05-23T09:22:38.229Z,19.92
2019-05-23T09:25:08.007Z,20.41
2019-05-23T09:27:36.845Z,19.88
2019-05-23T09:30:09.620Z,19.92
2019-05-23T09:32:38.289Z,18.42
2019-05-23T09:35:20.271Z,18.88
2019-05-23T09:37:37.606Z,18.87
2019-05-23T09:40:09.508Z,18.67
2019-05-23T09:42:37.948Z,18.48
2019-05-23T09:45:07.805Z,18.09
2019-05-23T09:47:36.571Z,18.03
2019-05-23T09:50:07.263Z,18.24
2019-05-23T09:52:36.085Z,18.33
2019-05-23T09:55:07.125Z,18.12
2019-05-23T09:57:35.530Z,18.43
2019-05-23T10:00:08.348Z,18.51
2019-05-23T10:02:36.803Z,17.77
2019-05-23T10:05:11.393Z,18.27
2019-05-23T10:07:40.519Z,18.47
2019-05-23T10:10:11.044Z,18.16
2019-05-23T10:12:39.928Z,18.03
2019-05-23T10:15:12.993Z,18.07
2019-05-23T10:17:41.801Z,18.47
2019-05-23T10:20:10.788Z,18.67
2019-05-23T10:22:39.252Z,18.87
2019-05-23T10:25:07.857Z,18.91
2019-05-23T10:27:36.397Z,19.00
2019-05-23T10:30:08.950Z,19.33
2019-05-23T10:32:37.469Z,19.33
2019-05-23T10:35:08.075Z,19.13
2019-05-23T10:37:36.538Z,19.36
2019-05-23T10:40:05.463Z,19.45
2019-05-23T10:42:34.519Z,20.00
2019-05-23T10:45:03.936Z,20.29
2019-05-23T10:47:32.482Z,20.39
2019-05-23T10:50:07.244Z,19.13
2019-05-23T10:52:32.022Z,18.86
2019-05-23T10:55:00.807Z,19.02
2019-05-23T10:57:29.788Z,18.98
2019-05-23T11:00:01.094Z,19.27
2019-05-23T11:02:29.811Z,19.42
2019-05-23T11:04:58.750Z,19.59
2019-05-23T11:07:27.447Z,19.73
2019-05-23T11:09:56.069Z,19.84
2019-05-23T11:12:25.521Z,19.88
2019-05-23T11:14:54.349Z,20.03
2019-05-23T11:17:23.285Z,20.39
2019-05-23T11:19:51.799Z,20.35
2019-05-23T11:22:21.083Z,19.68
2019-05-23T11:24:49.865Z,19.43
2019-05-23T11:27:20.141Z,19.53
2019-05-23T11:29:48.505Z,19.97
2019-05-23T11:32:20.055Z,20.36
2019-05-23T11:34:47.527Z,20.62
2019-05-23T11:37:16.042Z,20.52
2019-05-23T11:39:49.499Z,20.72
2019-05-23T11:42:14.849Z,21.18
2019-05-23T11:44:43.385Z,20.76
2019-05-23T11:47:12.484Z,21.18
2019-05-23T11:49:41.626Z,21.23
2019-05-23T11:52:10.899Z,21.31
2019-05-23T11:54:40.058Z,21.65
2019-05-23T11:57:09.144Z,21.78
2019-05-23T11:59:39.234Z,22.10
2019-05-23T12:02:09.382Z,22.91
2019-05-23T12:04:39.709Z,24.09
2019-05-23T12:07:10.471Z,25.39
2019-05-23T12:09:38.953Z,26.17
2019-05-23T12:12:07.373Z,26.62
2019-05-23T12:14:36.218Z,26.94
2019-05-23T12:17:04.907Z,27.30
2019-05-23T12:19:33.791Z,27.40
2019-05-23T12:22:02.333Z,27.74
2019-05-23T12:24:35.086Z,27.46
2019-05-23T12:27:01.076Z,27.94
2019-05-23T12:29:29.522Z,27.30
2019-05-23T12:31:58.201Z,28.20
2019-05-23T12:34:26.918Z,29.33
2019-05-23T12:37:17.077Z,30.43
2019-05-23T12:39:25.697Z,31.41
2019-05-23T12:41:54.168Z,33.61
2019-05-23T12:44:22.663Z,35.55
2019-05-23T12:46:51.169Z,37.07
2019-05-23T12:49:36.615Z,36.87
2019-05-23T12:52:06.823Z,37.75
2019-05-23T12:54:35.306Z,38.66
2019-05-23T12:57:04.590Z,38.00
2019-05-23T12:59:33.364Z,37.65
2019-05-23T13:02:02.157Z,37.02
2019-05-23T13:04:30.824Z,36.36
2019-05-23T13:07:00.175Z,35.80
2019-05-23T13:09:29.027Z,35.65
2019-05-23T13:11:57.829Z,34.74
2019-05-23T13:14:26.654Z,35.12
2019-05-23T13:16:59.776Z,35.78
2019-05-23T13:19:25.873Z,35.88
2019-05-23T13:21:54.356Z,36.00
2019-05-23T13:24:22.907Z,37.09
2019-05-23T13:26:51.382Z,38.63
2019-05-23T13:29:24.067Z,39.62
2019-05-23T13:31:50.875Z,40.35
2019-05-23T13:34:19.696Z,41.12
2019-05-23T13:36:50.233Z,41.96
2019-05-23T13:39:20.322Z,41.77
2019-05-23T13:41:49.541Z,41.61
2019-05-23T13:44:32.637Z,40.98
2019-05-23T13:46:48.715Z,41.04
2019-05-23T13:49:17.559Z,40.85
2019-05-23T13:51:46.265Z,39.00
2019-05-23T13:54:14.761Z,35.26
2019-05-23T13:56:47.590Z,34.60
2019-05-23T13:59:14.031Z,35.19
2019-05-23T14:01:42.871Z,35.24
2019-05-23T14:04:11.408Z,34.65
2019-05-23T14:06:40.220Z,34.32
2019-05-23T14:09:09.121Z,31.34
2019-05-23T14:11:38.638Z,32.16
2019-05-23T14:14:08.214Z,32.97
2019-05-23T14:16:38.518Z,30.99
2019-05-23T14:19:07.537Z,30.54
2019-05-23T14:21:36.861Z,30.73
2019-05-23T14:24:06.296Z,30.55
2019-05-23T14:26:36.701Z,29.69
2019-05-23T14:29:05.133Z,28.77
2019-05-23T14:31:35.267Z,27.91
2019-05-23T14:34:05.464Z,27.31
2019-05-23T14:36:44.482Z,27.02
2019-05-23T14:39:16.698Z,27.05
2019-05-23T14:41:53.076Z,26.99
2019-05-23T14:44:21.847Z,27.25
2019-05-23T14:47:08.045Z,27.07
2019-05-23T14:49:54.300Z,26.90
2019-05-23T14:52:33.402Z,26.56
2019-05-23T14:55:03.746Z,26.21
2019-05-23T14:57:34.982Z,25.94
2019-05-23T15:00:05.899Z,25.49
2019-05-23T15:02:34.425Z,24.72
2019-05-23T15:05:04.699Z,24.17
2019-05-23T15:07:34.853Z,23.49
2019-05-23T15:10:06.072Z,22.79
2019-05-23T15:12:34.687Z,22.40
2019-05-23T15:15:03.780Z,22.08
2019-05-23T15:17:32.270Z,21.98
2019-05-23T15:20:00.715Z,21.87
2019-05-23T15:22:29.094Z,21.79
2019-05-23T15:24:57.661Z,21.64
2019-05-23T15:27:26.360Z,21.55
2019-05-23T15:29:55.252Z,21.47
2019-05-23T15:32:23.856Z,21.53
2019-05-23T15:34:52.338Z,21.74
2019-05-23T15:37:21.068Z,21.77
2019-05-23T15:39:49.532Z,21.59
2019-05-23T15:42:17.905Z,21.43
2019-05-23T15:44:46.291Z,21.48
2019-05-23T15:47:15.857Z,21.64
2019-05-23T15:49:45.932Z,21.55
2019-05-23T15:52:18.768Z,21.37
2019-05-23T15:54:48.926Z,21.24
2019-05-23T15:57:22.096Z,21.20
2019-05-23T15:59:52.191Z,21.11
2019-05-23T16:02:22.629Z,20.98
2019-05-23T16:04:52.756Z,20.87
2019-05-23T16:07:21.761Z,20.82
2019-05-23T16:09:50.251Z,20.63
2019-05-23T16:12:19.004Z,20.53
2019-05-23T16:14:47.545Z,20.50
2019-05-23T16:17:16.261Z,20.51
2019-05-23T16:19:44.831Z,20.59
2019-05-23T16:22:13.415Z,20.48
2019-05-23T16:24:41.885Z,20.38
2019-05-23T16:27:10.329Z,20.36
2019-05-23T16:29:38.951Z,20.31
2019-05-23T16:32:07.587Z,20.38
2019-05-23T16:34:37.069Z,20.51
2019-05-23T16:37:05.588Z,20.61
2019-05-23T16:39:46.732Z,20.71
2019-05-23T16:42:06.004Z,20.79
2019-05-23T16:44:34.442Z,20.84
2019-05-23T16:47:02.981Z,20.78
2019-05-23T16:49:31.477Z,20.72
2019-05-23T16:51:59.869Z,20.59
2019-05-23T16:54:30.151Z,20.52
2019-05-23T16:57:00.173Z,20.38
2019-05-23T16:59:30.511Z,20.25
2019-05-23T17:02:06.340Z,20.18
2019-05-23T17:04:44.019Z,20.12
2019-05-23T17:07:30.828Z,20.08
2019-05-23T17:10:09.173Z,20.02
2019-05-23T17:12:51.814Z,19.95
2019-05-23T17:15:37.236Z,19.94
2019-05-23T17:18:23.410Z,19.89
2019-05-23T17:21:02.598Z,19.82
2019-05-23T17:23:50.938Z,19.78
2019-05-23T17:26:40.308Z,19.71
2019-05-23T17:29:25.478Z,19.68
2019-05-23T17:31:55.569Z,19.61
2019-05-23T17:34:24.024Z,19.57
2019-05-23T17:36:52.471Z,19.58
2019-05-23T17:39:20.972Z,19.53
2019-05-23T17:41:49.843Z,19.51
2019-05-23T17:44:18.285Z,19.50
2019-05-23T17:46:46.751Z,19.50
2019-05-23T17:49:15.286Z,19.49
2019-05-23T17:51:44.025Z,19.46
2019-05-23T17:54:12.858Z,19.48
2019-05-23T17:56:41.323Z,19.44
2019-05-23T17:59:09.706Z,19.43
2019-05-23T18:01:38.806Z,19.45
2019-05-23T18:04:07.284Z,19.54
2019-05-23T18:06:36.246Z,19.40
2019-05-23T18:09:08.504Z,19.33
2019-05-23T18:11:38.947Z,19.25
2019-05-23T18:14:07.854Z,19.22
2019-05-23T18:16:36.502Z,19.18
2019-05-23T18:19:05.460Z,19.16
2019-05-23T18:21:34.296Z,19.21
2019-05-23T18:24:03.040Z,19.26
2019-05-23T18:26:31.505Z,19.19
2019-05-23T18:29:00.081Z,19.11
2019-05-23T18:31:30.255Z,19.07
2019-05-23T18:33:59.471Z,19.00
2019-05-23T18:36:28.613Z,18.95
2019-05-23T18:38:57.620Z,18.91
2019-05-23T18:41:26.144Z,18.88
2019-05-23T18:43:55.024Z,18.87
2019-05-23T18:46:40.455Z,18.85
2019-05-23T18:49:10.158Z,18.80
2019-05-23T18:51:40.477Z,18.76
2019-05-23T18:54:09.196Z,18.71
2019-05-23T18:56:37.742Z,18.69
2019-05-23T18:59:07.491Z,18.65
2019-05-23T19:01:36.295Z,18.66
2019-05-23T19:04:05.336Z,18.62
2019-05-23T19:06:34.140Z,18.61
2019-05-23T19:09:02.637Z,18.59
2019-05-23T19:11:31.500Z,18.55
2019-05-23T19:14:00.070Z,18.55
2019-05-23T19:16:29.303Z,18.49
2019-05-23T19:18:58.533Z,18.45
2019-05-23T19:21:29.112Z,18.37
2019-05-23T19:23:57.882Z,18.33
2019-05-23T19:26:27.615Z,18.32
2019-05-23T19:28:56.580Z,18.27
2019-05-23T19:31:25.501Z,18.22
2019-05-23T19:33:54.034Z,18.18
2019-05-23T19:36:23.186Z,18.17
2019-05-23T19:38:51.822Z,18.15
2019-05-23T19:41:35.661Z,18.12
2019-05-23T19:43:50.366Z,18.10
2019-05-23T19:46:19.257Z,18.04
2019-05-23T19:48:48.659Z,18.02
2019-05-23T19:51:18.267Z,18.01
2019-05-23T19:53:47.471Z,18.00
2019-05-23T19:56:16.257Z,18.01
2019-05-23T19:58:45.076Z,17.98
2019-05-23T20:01:14.861Z,17.96
2019-05-23T20:03:43.653Z,17.97
2019-05-23T20:06:14.044Z,17.96
2019-05-23T20:08:44.288Z,17.92
2019-05-23T20:11:12.808Z,17.91
2019-05-23T20:13:41.230Z,17.90
2019-05-23T20:16:09.795Z,17.91
2019-05-23T20:18:38.805Z,17.88
2019-05-23T20:21:07.412Z,17.91
2019-05-23T20:23:35.840Z,17.86
2019-05-23T20:26:07.992Z,17.84
2019-05-23T20:28:39.221Z,17.79
2019-05-23T20:31:06.539Z,17.79
2019-05-23T20:33:35.396Z,17.79
2019-05-23T20:36:04.877Z,17.72
2019-05-23T20:38:33.653Z,17.64
2019-05-23T20:41:02.173Z,17.61
2019-05-23T20:43:31.109Z,17.56
2019-05-23T20:45:59.577Z,17.53
2019-05-23T20:48:28.829Z,17.48
2019-05-23T20:50:57.292Z,17.45
2019-05-23T20:53:26.153Z,17.43
2019-05-23T20:55:54.592Z,17.41
2019-05-23T20:58:23.166Z,17.37
2019-05-23T21:00:55.729Z,17.33
2019-05-23T21:03:25.045Z,17.32
2019-05-23T21:05:53.598Z,17.30
2019-05-23T21:08:22.254Z,17.23
2019-05-23T21:10:51.214Z,17.22
2019-05-23T21:13:19.714Z,17.19
2019-05-23T21:15:48.685Z,17.19
2019-05-23T21:18:18.857Z,17.18
2019-05-23T21:20:47.267Z,17.18
2019-05-23T21:23:15.819Z,17.14
2019-05-23T21:25:45.934Z,17.14
2019-05-23T21:28:14.913Z,17.12
2019-05-23T21:30:43.690Z,17.13
2019-05-23T21:33:12.320Z,17.07
2019-05-23T21:35:40.728Z,17.04
2019-05-23T21:38:09.843Z,17.06
2019-05-23T21:40:40.926Z,17.01
2019-05-23T21:43:09.457Z,16.99
2019-05-23T21:45:38.110Z,16.98
2019-05-23T21:48:06.789Z,16.94
2019-05-23T21:50:35.427Z,16.90
2019-05-23T21:53:04.282Z,16.88
2019-05-23T21:55:35.851Z,16.87
2019-05-23T21:58:05.302Z,16.86
2019-05-23T22:01:07.935Z,16.81
2019-05-23T22:03:39.194Z,16.83
2019-05-23T22:06:11.902Z,16.81
2019-05-23T22:08:40.969Z,16.81
2019-05-23T22:11:09.989Z,16.80
2019-05-23T22:13:38.510Z,16.78
2019-05-23T22:16:08.221Z,16.76
2019-05-23T22:18:36.738Z,16.75
2019-05-23T22:21:05.376Z,16.68
2019-05-23T22:23:34.689Z,16.67
2019-05-23T22:26:03.904Z,16.65
2019-05-23T22:28:32.418Z,16.64
2019-05-23T22:31:00.900Z,16.62
2019-05-23T22:33:31.065Z,16.60
2019-05-23T22:36:01.156Z,16.57
2019-05-23T22:38:29.756Z,16.57
2019-05-23T22:40:58.286Z,16.51
2019-05-23T22:43:27.007Z,16.52
2019-05-23T22:45:55.651Z,16.47
2019-05-23T22:48:24.025Z,16.41
2019-05-23T22:50:52.785Z,16.37
2019-05-23T22:53:21.545Z,16.35
2019-05-23T22:55:49.997Z,16.30
2019-05-23T22:58:18.462Z,16.31
2019-05-23T23:00:48.616Z,16.30
2019-05-23T23:03:17.307Z,16.25
2019-05-23T23:05:45.773Z,16.24
2019-05-23T23:08:14.317Z,16.22
2019-05-23T23:10:42.982Z,16.22
2019-05-23T23:13:12.699Z,16.22
2019-05-23T23:15:41.312Z,16.21
2019-05-23T23:18:10.384Z,16.16
2019-05-23T23:20:38.967Z,16.13
2019-05-23T23:23:07.493Z,16.12
2019-05-23T23:25:36.236Z,16.10
2019-05-23T23:28:04.820Z,16.07
2019-05-23T23:30:44.176Z,16.07
2019-05-23T23:33:13.060Z,16.06
2019-05-23T23:35:41.560Z,16.00
2019-05-23T23:38:10.036Z,16.00
2019-05-23T23:40:38.464Z,15.93
2019-05-23T23:43:06.869Z,15.79
2019-05-23T23:45:53.480Z,15.74
2019-05-23T23:48:39.997Z,15.76
2019-05-23T23:51:25.819Z,15.72
2019-05-23T23:54:12.017Z,15.67
2019-05-23T23:56:58.527Z,15.61
2019-05-23T23:59:26.456Z,15.46
